LEBB/BIO METAR and TAF weather

Enter ICAO airport designator
Station Type Date Time Source
LEBB METAR 2019/06/26 16:00 UTC NOAA

LEBB 261600Z 10009KT 060V150 CAVOK 38/20 Q1011 NOSIG


Station Type Date Time Source
LEBB Decoded METAR 2019/06/26 16:00 UTC NOAA

Bilbao / Sondica, Spain (LEBB) 43-18N 002-56W 37M
Jun 26, 2019 - 12:00 PM EDT / 2019.06.26 1600 UTC
Wind: from the E (100 degrees) at 10 MPH (9 KT) (direction variable):0
Visibility: greater than 7 mile(s):0
Temperature: 100 F (38 C)
Heat index: 105.4 F (40.8 C):1
Dew Point: 68 F (20 C)
Relative Humidity: 35%
Pressure (altimeter): 29.85 in. Hg (1011 hPa)
ob: LEBB 261600Z 10009KT 060V150 CAVOK 38/20 Q1011 NOSIG
cycle: 16

Station Type Date Time Source
LEBB TAF 2019/06/26 12:27 UTC NOAA

TAF LEBB 261100Z 2612/2712 14008KT 9999 FEW012 SCT022 TX35/2613Z TN17/2705Z
TEMPO 2612/2620 07010KT
BECMG 2617/2620 33012KT PROB40
TEMPO 2617/2621 29015G25KT SCT050TCU PROB30
TEMPO 2618/2622 27018G30KT BKN010
BECMG 2621/2701 VRB06KT PROB30
TEMPO 2622/2706 3000 BR BKN010

Example: see airport list